Hauptseite
METAR-TAF:

METAR-TAF

Flughäfen :

Mönchengladbach, Deutschland

Verkehrslandeplatz Mönchengladbach

Breite: 51-13-49N, Länge: 006-30-16E, Höhe: 38 m

Beobachtung

Neuester Wetterbericht von vor 7 Stunden und 32 Minuten, um 18:20 UTC
Windstille
Temperatur 10°C
Luftfeuchtigkeit 93%
Luftdruck 1020 hPa
Sichtweite 10 km oder mehr
keine Wolken unter 1500 m und keine Kumulonimbus oder Gewitterwolken

METAR: EDLN 191820Z 00000KT CAVOK 10/09 Q1020

Zeit: 03:52 (01:52 UTC)

Prognose

Neuester Wetterbericht von vor 8 Stunden und 52 Minuten, um 17:00 UTC
Gültige Prognose vom 19 um 18 UTC bis 20 um 03 UTC
Wind 5 kt aus Nordwest
Sichtweite 10 km oder mehr
Aufgelockert bewölkt in der Höhe von 2500 ft
Übergehend zu
vom 19 um 18 UTC bis 19 um 21 UTC
Wind 3 kt aus unterschiedlichen Richtungen

TAF: EDLN 191700Z 1918/2003 31005KT 9999 SCT025 BECMG 1918/1921 VRB03KT

Wetterbeobachtungen und Prognosen von mehr als 4000 Flughäfen (METAR und TAF Bericht).

Die verfügbaren Stationen werden durch gelbe und rote Markierungen auf der Karte dargestellt.

Führen Sie die Maus auf sie, um den Namen der Station zu sehen.

Darauf klicken, um die Beobachtung von Wetterbeobachtungen und Prognosen zu sehen.

Um die Karte zu ändern : klicken Sie auf den grünen Tasten mit einem schwarzen Kreuz Zum Vergrößern, auf den grünen Button mit einem Gedankenstrich zu verkleinern, oder auf die grünen Pfeile für benachbarte Karten.


METAR-TAF: